createdAt,value
2019-02-21T00:00:36.602Z,154.60
2019-02-21T00:03:08.979Z,138.60
2019-02-21T00:05:41.024Z,128.95
2019-02-21T00:08:13.487Z,122.45
2019-02-21T00:10:45.370Z,131.63
2019-02-21T00:13:18.781Z,132.55
2019-02-21T00:15:50.687Z,135.93
2019-02-21T00:18:22.657Z,152.62
2019-02-21T00:20:57.647Z,134.00
2019-02-21T00:23:29.523Z,130.22
2019-02-21T00:26:01.303Z,137.30
2019-02-21T00:28:34.270Z,142.00
2019-02-21T00:31:06.164Z,123.85
2019-02-21T00:33:38.034Z,132.80
2019-02-21T00:36:09.874Z,146.13
2019-02-21T00:38:41.714Z,153.95
2019-02-21T00:41:16.232Z,144.45
2019-02-21T00:43:48.383Z,145.30
2019-02-21T00:46:20.323Z,148.22
2019-02-21T00:48:53.764Z,127.70
2019-02-21T00:51:25.625Z,126.97
2019-02-21T00:53:57.423Z,122.30
2019-02-21T00:56:29.407Z,126.67
2019-02-21T00:59:01.234Z,125.18
2019-02-21T01:01:33.099Z,131.53
2019-02-21T01:04:05.923Z,125.87
2019-02-21T01:06:37.774Z,135.80
2019-02-21T01:09:10.666Z,142.72
2019-02-21T01:11:42.857Z,129.03
2019-02-21T01:14:17.911Z,137.13
2019-02-21T01:16:51.506Z,137.20
2019-02-21T01:19:23.576Z,131.75
2019-02-21T01:21:55.428Z,131.13
2019-02-21T01:24:30.000Z,124.58
2019-02-21T01:27:02.550Z,142.63
2019-02-21T01:29:34.461Z,148.00
2019-02-21T01:32:07.619Z,135.97
2019-02-21T01:34:41.179Z,136.10
2019-02-21T01:37:14.795Z,147.17
2019-02-21T01:39:47.105Z,135.97
2019-02-21T01:42:19.042Z,129.90
2019-02-21T01:44:50.885Z,135.20
2019-02-21T01:47:22.757Z,131.57
2019-02-21T01:49:54.678Z,147.17
2019-02-21T01:52:26.549Z,143.40
2019-02-21T01:54:58.356Z,142.97
2019-02-21T01:57:30.576Z,142.83
2019-02-21T02:00:02.419Z,137.03
2019-02-21T02:02:34.791Z,144.70
2019-02-21T02:05:07.139Z,135.67
2019-02-21T02:07:39.752Z,139.32
2019-02-21T02:10:11.788Z,147.47
2019-02-21T02:12:43.637Z,153.30
2019-02-21T02:15:15.513Z,150.30
2019-02-21T02:17:47.370Z,149.83
2019-02-21T02:20:20.234Z,150.33
2019-02-21T02:22:53.146Z,131.37
2019-02-21T02:25:26.691Z,137.83
2019-02-21T02:27:58.862Z,140.20
2019-02-21T02:30:30.709Z,130.23
2019-02-21T02:33:02.517Z,125.97
2019-02-21T02:35:35.383Z,129.40
2019-02-21T02:38:07.972Z,123.60
2019-02-21T02:40:39.820Z,139.50
2019-02-21T02:43:11.670Z,129.97
2019-02-21T02:45:43.533Z,133.83
2019-02-21T02:48:15.336Z,139.33
2019-02-21T02:50:47.219Z,143.63
2019-02-21T02:53:19.101Z,134.97
2019-02-21T02:55:50.958Z,142.77
2019-02-21T02:58:22.881Z,142.63
2019-02-21T03:00:54.765Z,139.97
2019-02-21T03:03:27.325Z,117.93
2019-02-21T03:05:59.171Z,124.07
2019-02-21T03:08:32.129Z,125.93
2019-02-21T03:11:03.979Z,118.17
2019-02-21T03:13:35.983Z,126.20
2019-02-21T03:16:10.495Z,128.97
2019-02-21T03:18:42.324Z,117.33
2019-02-21T03:21:14.446Z,114.97
2019-02-21T03:23:46.319Z,119.83
2019-02-21T03:26:20.403Z,110.20
2019-02-21T03:28:52.809Z,118.43
2019-02-21T03:31:24.620Z,120.27
2019-02-21T03:33:56.757Z,113.13
2019-02-21T03:36:29.030Z,122.93
2019-02-21T03:39:00.873Z,114.70
2019-02-21T03:41:35.826Z,122.60
2019-02-21T03:44:09.271Z,125.23
2019-02-21T03:46:41.138Z,130.67
2019-02-21T03:49:12.970Z,129.73
2019-02-21T03:51:47.110Z,127.47
2019-02-21T03:54:19.003Z,117.87
2019-02-21T03:56:51.011Z,118.77
2019-02-21T03:59:23.287Z,108.43
2019-02-21T04:02:04.872Z,111.83
2019-02-21T04:04:29.515Z,119.23
2019-02-21T04:07:01.396Z,111.70
2019-02-21T04:09:33.268Z,114.37
2019-02-21T04:12:05.134Z,113.50
2019-02-21T04:14:37.888Z,111.50
2019-02-21T04:17:09.693Z,114.67
2019-02-21T04:19:41.908Z,107.63
2019-02-21T04:22:13.813Z,100.27
2019-02-21T04:24:48.183Z,100.67
2019-02-21T04:27:20.298Z,105.50
2019-02-21T04:29:52.701Z,98.70
2019-02-21T04:32:24.478Z,95.63
2019-02-21T04:34:57.990Z,100.97
2019-02-21T04:37:29.873Z,97.70
2019-02-21T04:40:01.677Z,102.80
2019-02-21T04:42:33.873Z,92.20
2019-02-21T04:45:05.911Z,95.63
2019-02-21T04:47:37.815Z,107.67
2019-02-21T04:50:09.648Z,121.33
2019-02-21T04:52:41.567Z,113.47
2019-02-21T04:55:13.409Z,99.23
2019-02-21T04:57:47.632Z,103.97
2019-02-21T05:00:22.262Z,109.93
2019-02-21T05:02:54.045Z,99.10
2019-02-21T05:05:25.899Z,100.43
2019-02-21T05:07:57.740Z,92.27
2019-02-21T05:10:29.563Z,98.87
2019-02-21T05:13:01.436Z,94.60
2019-02-21T05:15:33.242Z,97.03
2019-02-21T05:18:06.378Z,89.40
2019-02-21T05:20:39.822Z,93.00
2019-02-21T05:23:12.982Z,89.80
2019-02-21T05:25:44.735Z,92.27
2019-02-21T05:28:29.001Z,88.80
2019-02-21T05:31:05.519Z,80.93
2019-02-21T05:34:05.540Z,85.90
2019-02-21T05:37:00.787Z,82.03
2019-02-21T05:40:03.878Z,76.80
2019-02-21T05:42:51.766Z,84.43
2019-02-21T05:45:38.118Z,86.83
2019-02-21T05:48:30.302Z,73.80
2019-02-21T05:51:22.314Z,79.97
2019-02-21T05:54:13.015Z,83.60
2019-02-21T05:57:07.378Z,90.87
2019-02-21T06:00:11.999Z,97.13
2019-02-21T06:03:08.595Z,86.23
2019-02-21T06:06:05.516Z,92.23
2019-02-21T06:08:50.445Z,83.10
2019-02-21T06:11:47.106Z,81.63
2019-02-21T06:14:40.658Z,77.20
2019-02-21T06:17:31.323Z,68.53
2019-02-21T06:20:22.660Z,79.93
2019-02-21T06:23:14.658Z,83.80
2019-02-21T06:25:58.196Z,83.97
2019-02-21T06:28:31.551Z,80.30
2019-02-21T06:31:06.430Z,82.40
2019-02-21T06:33:38.384Z,78.00
2019-02-21T06:36:10.190Z,74.03
2019-02-21T06:38:43.764Z,88.07
2019-02-21T06:41:15.586Z,77.67
2019-02-21T06:43:47.732Z,76.40
2019-02-21T06:46:19.890Z,76.07
2019-02-21T06:48:52.008Z,74.83
2019-02-21T06:51:23.845Z,80.23
2019-02-21T06:53:55.663Z,70.17
2019-02-21T06:56:27.499Z,76.90
2019-02-21T06:58:59.354Z,77.17
2019-02-21T07:01:31.213Z,72.60
2019-02-21T07:04:03.047Z,66.10
2019-02-21T07:06:35.482Z,65.53
2019-02-21T07:09:07.368Z,68.53
2019-02-21T07:11:39.209Z,68.87
2019-02-21T07:14:11.073Z,62.53
2019-02-21T07:16:42.845Z,64.80
2019-02-21T07:19:15.814Z,63.57
2019-02-21T07:21:47.591Z,66.80
2019-02-21T07:24:19.435Z,67.70
2019-02-21T07:26:51.261Z,72.50
2019-02-21T07:29:23.170Z,85.43
2019-02-21T07:31:55.026Z,61.00
2019-02-21T07:34:27.286Z,64.40
2019-02-21T07:36:59.189Z,63.93
2019-02-21T07:39:35.952Z,64.67
2019-02-21T07:42:04.544Z,65.33
2019-02-21T07:44:36.425Z,63.27
2019-02-21T07:47:08.230Z,62.73
2019-02-21T07:49:40.078Z,66.90
2019-02-21T07:52:11.914Z,63.50
2019-02-21T07:54:44.415Z,72.10
2019-02-21T07:57:17.165Z,74.80
2019-02-21T07:59:48.991Z,60.95
2019-02-21T08:02:21.138Z,61.77
2019-02-21T08:04:53.107Z,62.07
2019-02-21T08:07:26.400Z,54.40
2019-02-21T08:09:58.380Z,59.63
2019-02-21T08:12:30.211Z,55.50
2019-02-21T08:15:01.989Z,59.57
2019-02-21T08:17:33.931Z,65.27
2019-02-21T08:20:08.704Z,60.97
2019-02-21T08:22:42.546Z,59.00
2019-02-21T08:25:14.421Z,61.73
2019-02-21T08:27:46.879Z,57.50
2019-02-21T08:30:18.767Z,57.67
2019-02-21T08:33:02.845Z,62.67
2019-02-21T08:35:35.719Z,51.50
2019-02-21T08:38:12.011Z,52.17
2019-02-21T08:40:43.029Z,54.15
2019-02-21T08:43:16.407Z,51.45
2019-02-21T08:45:50.280Z,64.83
2019-02-21T08:48:23.766Z,52.93
2019-02-21T08:50:55.559Z,48.45
2019-02-21T08:53:28.284Z,50.52
2019-02-21T08:56:00.268Z,51.65
2019-02-21T08:58:32.232Z,59.23
2019-02-21T09:01:04.061Z,72.90
2019-02-21T09:03:35.946Z,85.80
2019-02-21T09:06:08.014Z,112.00
2019-02-21T09:08:39.867Z,85.65
2019-02-21T09:11:11.715Z,79.27
2019-02-21T09:13:43.670Z,74.87
2019-02-21T09:16:17.684Z,54.38
2019-02-21T09:18:49.205Z,46.60
2019-02-21T09:21:22.387Z,48.48
2019-02-21T09:23:56.535Z,39.08
2019-02-21T09:26:29.188Z,49.08
2019-02-21T09:29:00.992Z,37.70
2019-02-21T09:31:32.865Z,40.58
2019-02-21T09:34:04.769Z,36.38
2019-02-21T09:36:37.901Z,41.00
2019-02-21T09:39:09.832Z,42.58
2019-02-21T09:41:44.225Z,40.25
2019-02-21T09:44:18.226Z,31.37
2019-02-21T09:46:50.463Z,38.35
2019-02-21T09:49:22.434Z,34.38
2019-02-21T09:51:54.287Z,43.80
2019-02-21T09:54:26.218Z,40.63
2019-02-21T09:56:58.083Z,38.08
2019-02-21T09:59:29.903Z,35.50
2019-02-21T10:02:01.756Z,31.20
2019-02-21T10:04:33.622Z,38.17
2019-02-21T10:07:06.394Z,35.78
2019-02-21T10:09:38.405Z,34.48
2019-02-21T10:12:10.355Z,37.65
2019-02-21T10:14:42.211Z,39.08
2019-02-21T10:17:14.175Z,34.25
2019-02-21T10:19:45.948Z,37.35
2019-02-21T10:22:20.461Z,46.83
2019-02-21T10:24:52.291Z,35.95
2019-02-21T10:27:24.171Z,54.00
2019-02-21T10:29:56.035Z,33.55
2019-02-21T10:32:30.610Z,52.13
2019-02-21T10:35:02.429Z,42.53
2019-02-21T10:37:37.003Z,48.30
2019-02-21T10:40:10.509Z,48.42
2019-02-21T10:42:43.431Z,43.28
2019-02-21T10:45:17.002Z,38.35
2019-02-21T10:47:48.903Z,40.35
2019-02-21T10:50:24.248Z,43.63
2019-02-21T10:52:56.152Z,34.88
2019-02-21T10:55:28.071Z,31.65
2019-02-21T10:58:00.044Z,41.10
2019-02-21T11:00:32.129Z,31.57
2019-02-21T11:03:03.926Z,37.13
2019-02-21T11:05:35.786Z,29.20
2019-02-21T11:08:10.193Z,34.63
2019-02-21T11:10:42.056Z,35.75
2019-02-21T11:13:13.866Z,31.33
2019-02-21T11:15:45.830Z,35.00
2019-02-21T11:18:17.843Z,30.20
2019-02-21T11:20:51.854Z,31.80
2019-02-21T11:23:23.677Z,25.92
2019-02-21T11:25:58.795Z,31.17
2019-02-21T11:28:30.708Z,32.75
2019-02-21T11:31:02.637Z,33.10
2019-02-21T11:33:34.502Z,34.67
2019-02-21T11:36:06.443Z,43.58
2019-02-21T11:38:38.238Z,45.67
2019-02-21T11:41:10.063Z,28.05
2019-02-21T11:43:41.876Z,41.05
2019-02-21T11:46:13.709Z,79.37
2019-02-21T11:48:51.679Z,43.00
2019-02-21T11:51:26.128Z,36.30
2019-02-21T11:53:57.920Z,44.90
2019-02-21T11:56:29.851Z,34.50
2019-02-21T11:59:03.421Z,30.12
2019-02-21T12:01:35.243Z,38.20
2019-02-21T12:04:07.075Z,30.17
2019-02-21T12:06:39.012Z,31.37
2019-02-21T12:09:13.188Z,28.83
2019-02-21T12:11:45.048Z,29.42
2019-02-21T12:14:16.909Z,26.93
2019-02-21T12:16:48.711Z,34.50
2019-02-21T12:19:23.637Z,36.23
2019-02-21T12:21:59.007Z,40.30
2019-02-21T12:24:30.045Z,27.32
2019-02-21T12:27:02.265Z,21.70
2019-02-21T12:29:34.128Z,29.10
2019-02-21T12:32:08.363Z,34.33
2019-02-21T12:34:40.153Z,30.20
2019-02-21T12:37:11.996Z,33.45
2019-02-21T12:39:46.197Z,30.62
2019-02-21T12:42:18.114Z,32.17
2019-02-21T12:44:50.941Z,28.05
2019-02-21T12:47:24.456Z,34.65
2019-02-21T12:49:59.067Z,30.48
2019-02-21T12:52:32.175Z,35.05
2019-02-21T12:55:04.098Z,29.90
2019-02-21T12:57:36.245Z,36.75
2019-02-21T13:00:13.098Z,25.43
2019-02-21T13:02:44.991Z,29.07
2019-02-21T13:05:16.867Z,28.73
2019-02-21T13:07:48.705Z,38.28
2019-02-21T13:10:20.565Z,35.73
2019-02-21T13:12:52.417Z,30.48
2019-02-21T13:15:24.273Z,30.30
2019-02-21T13:17:56.209Z,27.13
2019-02-21T13:20:28.382Z,29.02
2019-02-21T13:23:00.735Z,31.35
2019-02-21T13:25:32.669Z,35.05
2019-02-21T13:28:06.875Z,24.98
2019-02-21T13:30:38.758Z,41.42
2019-02-21T13:33:11.090Z,37.10
2019-02-21T13:35:52.250Z,39.58
2019-02-21T13:38:17.696Z,26.02
2019-02-21T13:40:52.784Z,31.12
2019-02-21T13:43:25.627Z,31.05
2019-02-21T13:45:57.821Z,24.85
2019-02-21T13:48:31.937Z,29.37
2019-02-21T13:51:03.825Z,28.62
2019-02-21T13:53:37.917Z,25.08
2019-02-21T13:56:12.778Z,32.33
2019-02-21T13:58:44.894Z,34.45
2019-02-21T14:01:16.912Z,34.30
2019-02-21T14:03:50.062Z,37.03
2019-02-21T14:06:21.884Z,28.92
2019-02-21T14:08:53.726Z,39.60
2019-02-21T14:11:26.587Z,43.33
2019-02-21T14:13:58.383Z,45.78
2019-02-21T14:16:30.434Z,44.30
2019-02-21T14:19:04.017Z,34.40
2019-02-21T14:21:35.850Z,43.35
2019-02-21T14:24:07.833Z,42.50
2019-02-21T14:26:39.688Z,39.53
2019-02-21T14:29:11.479Z,41.90
2019-02-21T14:31:43.952Z,38.17
2019-02-21T14:34:15.795Z,33.67
2019-02-21T14:36:49.547Z,33.92
2019-02-21T14:39:21.399Z,29.32
2019-02-21T14:41:54.485Z,33.05
2019-02-21T14:44:26.326Z,32.38
2019-02-21T14:46:58.106Z,31.10
2019-02-21T14:49:29.944Z,31.93
2019-02-21T14:52:02.037Z,29.23
2019-02-21T14:54:34.345Z,39.33
2019-02-21T14:57:06.648Z,33.78
2019-02-21T14:59:38.573Z,26.87
2019-02-21T15:02:10.377Z,39.58
2019-02-21T15:04:43.928Z,33.02
2019-02-21T15:07:15.990Z,32.17
2019-02-21T15:09:47.822Z,36.77
2019-02-21T15:12:19.665Z,41.77
2019-02-21T15:14:51.450Z,41.10
2019-02-21T15:17:23.289Z,36.48
2019-02-21T15:19:55.091Z,38.50
2019-02-21T15:22:28.740Z,37.35
2019-02-21T15:25:00.803Z,35.80
2019-02-21T15:27:32.961Z,37.35
2019-02-21T15:30:05.237Z,40.73
2019-02-21T15:32:38.613Z,42.78
2019-02-21T15:35:12.869Z,40.92
2019-02-21T15:37:45.305Z,32.17
2019-02-21T15:40:17.533Z,38.33
2019-02-21T15:42:52.403Z,36.65
2019-02-21T15:45:24.381Z,45.05
2019-02-21T15:47:57.407Z,44.65
2019-02-21T15:50:33.693Z,47.03
2019-02-21T15:53:06.333Z,33.92
2019-02-21T15:55:39.204Z,38.23
2019-02-21T15:58:11.523Z,42.20
2019-02-21T16:00:44.934Z,39.85
2019-02-21T16:03:22.236Z,48.63
2019-02-21T16:05:58.288Z,42.45
2019-02-21T16:08:31.993Z,32.95
2019-02-21T16:11:04.869Z,37.40
2019-02-21T16:13:38.998Z,44.75
2019-02-21T16:16:13.807Z,41.85
2019-02-21T16:18:48.026Z,37.90
2019-02-21T16:21:20.644Z,49.08
2019-02-21T16:23:52.943Z,54.03
2019-02-21T16:26:25.245Z,49.08
2019-02-21T16:28:58.124Z,44.10
2019-02-21T16:31:33.991Z,41.45
2019-02-21T16:34:10.720Z,45.23
2019-02-21T16:36:43.531Z,49.40
2019-02-21T16:39:16.417Z,60.75
2019-02-21T16:41:49.023Z,65.05
2019-02-21T16:44:21.586Z,60.90
2019-02-21T16:46:55.673Z,46.20
2019-02-21T16:49:28.643Z,64.60
2019-02-21T16:52:02.288Z,43.95
2019-02-21T16:54:34.348Z,53.28
2019-02-21T16:57:06.909Z,55.17
2019-02-21T16:59:39.728Z,37.78
2019-02-21T17:02:15.826Z,52.25
2019-02-21T17:04:49.352Z,48.90
2019-02-21T17:07:21.320Z,54.63
2019-02-21T17:09:54.759Z,40.30
2019-02-21T17:12:26.597Z,42.65
2019-02-21T17:14:58.468Z,44.93
2019-02-21T17:17:32.175Z,62.95
2019-02-21T17:20:04.051Z,58.70
2019-02-21T17:22:35.929Z,51.15
2019-02-21T17:25:09.963Z,55.03
2019-02-21T17:27:41.940Z,41.60
2019-02-21T17:30:16.210Z,43.80
2019-02-21T17:32:48.622Z,49.48
2019-02-21T17:35:20.683Z,58.10
2019-02-21T17:37:52.612Z,52.85
2019-02-21T17:40:25.037Z,61.73
2019-02-21T17:42:56.843Z,52.38
2019-02-21T17:45:28.731Z,60.60
2019-02-21T17:48:01.746Z,52.93
2019-02-21T17:50:34.884Z,46.35
2019-02-21T17:53:07.171Z,51.58
2019-02-21T17:55:39.061Z,60.08
2019-02-21T17:58:11.006Z,53.80
2019-02-21T18:00:42.819Z,57.83
2019-02-21T18:03:14.672Z,55.73
2019-02-21T18:05:46.527Z,75.47
2019-02-21T18:08:18.395Z,78.83
2019-02-21T18:10:50.242Z,83.97
2019-02-21T18:13:22.727Z,77.45
2019-02-21T18:15:54.893Z,77.50
2019-02-21T18:18:26.755Z,72.85
2019-02-21T18:20:58.702Z,70.97
2019-02-21T18:23:34.186Z,66.55
2019-02-21T18:26:10.948Z,60.67
2019-02-21T18:28:42.810Z,77.25
2019-02-21T18:31:25.285Z,84.32
2019-02-21T18:33:57.135Z,84.00
2019-02-21T18:36:34.016Z,125.22
2019-02-21T18:39:08.148Z,100.35
2019-02-21T18:41:41.633Z,77.50
2019-02-21T18:44:13.548Z,78.85
2019-02-21T18:46:45.499Z,67.53
2019-02-21T18:49:17.606Z,66.60
2019-02-21T18:51:49.668Z,57.27
2019-02-21T18:54:27.930Z,64.25
2019-02-21T18:57:00.079Z,70.60
2019-02-21T18:59:32.829Z,64.53
2019-02-21T19:02:07.217Z,70.97
2019-02-21T19:04:39.293Z,80.20
2019-02-21T19:07:11.554Z,74.30
2019-02-21T19:09:44.206Z,78.85
2019-02-21T19:12:26.458Z,83.37
2019-02-21T19:15:02.182Z,73.07
2019-02-21T19:17:35.586Z,81.53
2019-02-21T19:20:09.342Z,83.07
2019-02-21T19:22:44.259Z,83.27
2019-02-21T19:25:16.618Z,89.03
2019-02-21T19:27:51.480Z,100.72
2019-02-21T19:30:44.605Z,110.90
2019-02-21T19:33:17.081Z,99.32
2019-02-21T19:35:49.634Z,97.90
2019-02-21T19:38:22.503Z,87.20
2019-02-21T19:40:54.564Z,99.25
2019-02-21T19:43:30.017Z,91.85
2019-02-21T19:46:02.669Z,103.53
2019-02-21T19:48:36.906Z,93.70
2019-02-21T19:51:09.170Z,84.45
2019-02-21T19:53:47.747Z,79.17
2019-02-21T19:56:19.755Z,79.90
2019-02-21T19:58:51.919Z,73.02
2019-02-21T20:01:28.498Z,80.35
2019-02-21T20:04:01.282Z,78.25
2019-02-21T20:06:33.442Z,86.05
2019-02-21T20:09:15.038Z,81.95
2019-02-21T20:11:50.584Z,99.67
2019-02-21T20:14:23.710Z,101.78
2019-02-21T20:17:00.545Z,87.15
2019-02-21T20:19:34.314Z,88.82
2019-02-21T20:22:09.912Z,82.12
2019-02-21T20:24:43.321Z,91.85
2019-02-21T20:27:15.648Z,108.03
2019-02-21T20:29:47.827Z,84.90
2019-02-21T20:32:19.935Z,89.55
2019-02-21T20:34:52.323Z,95.10
2019-02-21T20:37:26.072Z,108.57
2019-02-21T20:39:58.265Z,101.33
2019-02-21T20:42:31.515Z,109.12
2019-02-21T20:45:04.039Z,104.92
2019-02-21T20:47:43.036Z,101.70
2019-02-21T20:50:15.346Z,96.75
2019-02-21T20:52:47.405Z,92.82
2019-02-21T20:55:22.582Z,99.03
2019-02-21T20:57:54.666Z,100.40
2019-02-21T21:00:26.831Z,113.95
2019-02-21T21:02:58.744Z,99.70
2019-02-21T21:05:33.716Z,103.35
2019-02-21T21:08:05.712Z,108.25
2019-02-21T21:10:41.807Z,104.20
2019-02-21T21:13:14.021Z,102.67
2019-02-21T21:15:46.295Z,115.28
2019-02-21T21:18:18.367Z,117.25
2019-02-21T21:20:50.557Z,120.35
2019-02-21T21:23:23.509Z,126.78
2019-02-21T21:25:55.585Z,129.82
2019-02-21T21:28:27.617Z,134.45
2019-02-21T21:31:00.093Z,130.67
2019-02-21T21:33:33.550Z,131.32
2019-02-21T21:36:07.152Z,117.95
2019-02-21T21:38:40.034Z,112.75
2019-02-21T21:41:11.924Z,116.70
2019-02-21T21:43:43.775Z,119.13
2019-02-21T21:46:15.639Z,133.07
2019-02-21T21:48:53.300Z,120.90
2019-02-21T21:51:25.316Z,119.75
2019-02-21T21:53:57.179Z,126.58
2019-02-21T21:56:29.005Z,103.85
2019-02-21T21:59:01.947Z,107.07
2019-02-21T22:01:34.007Z,122.45
2019-02-21T22:04:06.020Z,120.55
2019-02-21T22:06:37.840Z,95.65
2019-02-21T22:09:09.896Z,112.28
2019-02-21T22:11:44.742Z,116.95
2019-02-21T22:14:16.655Z,110.80
2019-02-21T22:16:48.510Z,126.60
2019-02-21T22:19:20.377Z,142.62
2019-02-21T22:21:52.276Z,101.42
2019-02-21T22:24:24.160Z,100.67
2019-02-21T22:26:58.403Z,94.83
2019-02-21T22:29:30.412Z,97.92
2019-02-21T22:32:02.542Z,98.85
2019-02-21T22:34:34.390Z,112.47
2019-02-21T22:37:06.238Z,115.32
2019-02-21T22:39:38.097Z,113.10
2019-02-21T22:42:12.923Z,109.12
2019-02-21T22:44:44.864Z,111.50
2019-02-21T22:47:16.756Z,112.20
2019-02-21T22:49:48.668Z,100.35
2019-02-21T22:52:21.209Z,112.88
2019-02-21T22:54:53.124Z,94.60
2019-02-21T22:57:24.921Z,105.45
2019-02-21T22:59:56.850Z,94.28
2019-02-21T23:02:31.735Z,87.02
2019-02-21T23:05:43.862Z,101.65
2019-02-21T23:08:52.242Z,89.95
2019-02-21T23:11:34.133Z,99.92
2019-02-21T23:14:06.059Z,103.58
2019-02-21T23:16:38.145Z,101.12
2019-02-21T23:19:09.991Z,99.03
2019-02-21T23:21:44.299Z,103.20
2019-02-21T23:24:16.168Z,106.55
2019-02-21T23:26:50.066Z,112.45
2019-02-21T23:29:21.894Z,105.85
2019-02-21T23:31:55.974Z,108.70
2019-02-21T23:34:38.865Z,101.97
2019-02-21T23:37:10.724Z,100.00
2019-02-21T23:39:44.895Z,90.87
2019-02-21T23:42:18.315Z,110.83
2019-02-21T23:44:50.119Z,100.75
2019-02-21T23:47:21.978Z,100.92
2019-02-21T23:49:54.771Z,103.40
2019-02-21T23:52:26.615Z,107.35
2019-02-21T23:54:58.418Z,115.10
2019-02-21T23:57:30.281Z,119.95
